sensor_id;sensor_type;location;lat;lon;timestamp;temperature;humidity
546;DHT22;259;53.304;9.816;2024-01-15T00:01:57;9.90;79.60
546;DHT22;259;53.304;9.816;2024-01-15T00:04:22;9.90;79.70
546;DHT22;259;53.304;9.816;2024-01-15T00:06:49;9.90;79.70
546;DHT22;259;53.304;9.816;2024-01-15T00:09:15;9.90;79.50
546;DHT22;259;53.304;9.816;2024-01-15T00:11:41;9.80;79.50
546;DHT22;259;53.304;9.816;2024-01-15T00:14:08;9.80;79.40
546;DHT22;259;53.304;9.816;2024-01-15T00:16:34;9.80;79.40
546;DHT22;259;53.304;9.816;2024-01-15T00:18:59;9.80;79.50
546;DHT22;259;53.304;9.816;2024-01-15T00:21:25;9.80;79.60
546;DHT22;259;53.304;9.816;2024-01-15T00:23:51;9.80;79.60
546;DHT22;259;53.304;9.816;2024-01-15T00:26:17;9.80;79.60
546;DHT22;259;53.304;9.816;2024-01-15T00:28:43;9.80;79.60
546;DHT22;259;53.304;9.816;2024-01-15T00:31:08;9.70;79.50
546;DHT22;259;53.304;9.816;2024-01-15T00:33:34;9.70;79.60
546;DHT22;259;53.304;9.816;2024-01-15T00:36:00;9.70;79.70
546;DHT22;259;53.304;9.816;2024-01-15T00:38:26;9.70;80.40
546;DHT22;259;53.304;9.816;2024-01-15T00:40:52;9.70;79.70
546;DHT22;259;53.304;9.816;2024-01-15T00:43:17;9.70;79.80
546;DHT22;259;53.304;9.816;2024-01-15T00:45:44;9.60;79.70
546;DHT22;259;53.304;9.816;2024-01-15T00:48:10;9.60;79.70
546;DHT22;259;53.304;9.816;2024-01-15T00:50:36;9.70;80.00
546;DHT22;259;53.304;9.816;2024-01-15T00:53:02;9.60;79.90
546;DHT22;259;53.304;9.816;2024-01-15T00:55:28;9.60;80.70
546;DHT22;259;53.304;9.816;2024-01-15T00:57:54;9.60;79.90
546;DHT22;259;53.304;9.816;2024-01-15T01:00:20;9.60;80.00
546;DHT22;259;53.304;9.816;2024-01-15T01:02:46;9.60;80.00
546;DHT22;259;53.304;9.816;2024-01-15T01:05:12;9.60;79.90
546;DHT22;259;53.304;9.816;2024-01-15T01:07:38;9.60;80.00
546;DHT22;259;53.304;9.816;2024-01-15T01:10:04;9.50;79.90
546;DHT22;259;53.304;9.816;2024-01-15T01:12:30;9.50;79.90
546;DHT22;259;53.304;9.816;2024-01-15T01:14:56;9.50;80.00
546;DHT22;259;53.304;9.816;2024-01-15T01:17:22;9.50;80.10
546;DHT22;259;53.304;9.816;2024-01-15T01:19:49;9.50;80.20
546;DHT22;259;53.304;9.816;2024-01-15T01:22:15;9.50;80.10
546;DHT22;259;53.304;9.816;2024-01-15T01:24:40;9.40;80.00
546;DHT22;259;53.304;9.816;2024-01-15T01:27:06;9.50;80.10
546;DHT22;259;53.304;9.816;2024-01-15T01:29:32;9.50;80.20
546;DHT22;259;53.304;9.816;2024-01-15T01:31:58;9.40;80.10
546;DHT22;259;53.304;9.816;2024-01-15T01:34:23;9.40;80.10
546;DHT22;259;53.304;9.816;2024-01-15T01:36:49;9.40;80.20
546;DHT22;259;53.304;9.816;2024-01-15T01:39:15;9.40;80.10
546;DHT22;259;53.304;9.816;2024-01-15T01:41:41;9.40;80.20
546;DHT22;259;53.304;9.816;2024-01-15T01:44:07;9.30;80.00
546;DHT22;259;53.304;9.816;2024-01-15T01:46:33;9.40;80.30
546;DHT22;259;53.304;9.816;2024-01-15T01:49:04;9.30;80.20
546;DHT22;259;53.304;9.816;2024-01-15T01:51:32;9.30;80.20
546;DHT22;259;53.304;9.816;2024-01-15T01:53:59;9.30;80.30
546;DHT22;259;53.304;9.816;2024-01-15T01:56:26;9.30;80.40
546;DHT22;259;53.304;9.816;2024-01-15T01:58:52;9.30;80.20
546;DHT22;259;53.304;9.816;2024-01-15T02:01:18;9.30;80.30
546;DHT22;259;53.304;9.816;2024-01-15T02:03:45;9.30;80.30
546;DHT22;259;53.304;9.816;2024-01-15T02:06:10;9.30;80.50
546;DHT22;259;53.304;9.816;2024-01-15T02:08:37;9.30;81.20
546;DHT22;259;53.304;9.816;2024-01-15T02:11:03;9.20;80.40
546;DHT22;259;53.304;9.816;2024-01-15T02:13:28;9.20;80.30
546;DHT22;259;53.304;9.816;2024-01-15T02:15:54;9.20;80.40
546;DHT22;259;53.304;9.816;2024-01-15T02:18:20;9.20;80.40
546;DHT22;259;53.304;9.816;2024-01-15T02:20:46;9.20;80.50
546;DHT22;259;53.304;9.816;2024-01-15T02:23:15;9.20;80.50
546;DHT22;259;53.304;9.816;2024-01-15T02:25:46;9.20;80.60
546;DHT22;259;53.304;9.816;2024-01-15T02:28:16;9.20;80.60
546;DHT22;259;53.304;9.816;2024-01-15T02:30:43;9.10;80.50
546;DHT22;259;53.304;9.816;2024-01-15T02:33:10;9.10;80.50
546;DHT22;259;53.304;9.816;2024-01-15T02:35:36;9.10;80.60
546;DHT22;259;53.304;9.816;2024-01-15T02:38:03;9.10;80.60
546;DHT22;259;53.304;9.816;2024-01-15T02:40:29;9.10;80.50
546;DHT22;259;53.304;9.816;2024-01-15T02:42:55;9.10;80.70
546;DHT22;259;53.304;9.816;2024-01-15T02:45:21;9.10;80.60
546;DHT22;259;53.304;9.816;2024-01-15T02:47:47;9.10;80.50
546;DHT22;259;53.304;9.816;2024-01-15T02:50:13;9.10;80.70
546;DHT22;259;53.304;9.816;2024-01-15T02:52:38;9.10;80.70
546;DHT22;259;53.304;9.816;2024-01-15T02:55:05;9.00;80.50
546;DHT22;259;53.304;9.816;2024-01-15T02:57:31;9.00;80.60
546;DHT22;259;53.304;9.816;2024-01-15T02:59:56;9.00;80.60
546;DHT22;259;53.304;9.816;2024-01-15T03:02:22;9.00;80.60
546;DHT22;259;53.304;9.816;2024-01-15T03:04:48;9.00;80.70
546;DHT22;259;53.304;9.816;2024-01-15T03:07:13;9.00;80.70
546;DHT22;259;53.304;9.816;2024-01-15T03:09:39;9.00;80.80
546;DHT22;259;53.304;9.816;2024-01-15T03:12:05;9.00;80.90
546;DHT22;259;53.304;9.816;2024-01-15T03:14:31;9.00;80.80
546;DHT22;259;53.304;9.816;2024-01-15T03:16:57;8.90;80.70
546;DHT22;259;53.304;9.816;2024-01-15T03:19:22;8.90;81.60
546;DHT22;259;53.304;9.816;2024-01-15T03:21:48;8.90;80.80
546;DHT22;259;53.304;9.816;2024-01-15T03:24:14;8.90;80.80
546;DHT22;259;53.304;9.816;2024-01-15T03:26:39;8.90;80.80
546;DHT22;259;53.304;9.816;2024-01-15T03:29:05;8.90;81.00
546;DHT22;259;53.304;9.816;2024-01-15T03:31:32;8.90;80.90
546;DHT22;259;53.304;9.816;2024-01-15T03:33:58;8.90;80.90
546;DHT22;259;53.304;9.816;2024-01-15T03:36:23;8.90;80.90
546;DHT22;259;53.304;9.816;2024-01-15T03:38:49;8.80;80.80
546;DHT22;259;53.304;9.816;2024-01-15T03:41:15;8.80;80.80
546;DHT22;259;53.304;9.816;2024-01-15T03:43:40;8.80;80.80
546;DHT22;259;53.304;9.816;2024-01-15T03:46:07;8.80;80.90
546;DHT22;259;53.304;9.816;2024-01-15T03:48:32;8.80;80.80
546;DHT22;259;53.304;9.816;2024-01-15T03:50:58;8.80;81.00
546;DHT22;259;53.304;9.816;2024-01-15T03:53:24;8.80;81.00
546;DHT22;259;53.304;9.816;2024-01-15T03:55:50;8.80;81.00
546;DHT22;259;53.304;9.816;2024-01-15T03:58:15;8.70;81.00
546;DHT22;259;53.304;9.816;2024-01-15T04:00:42;8.70;81.00
546;DHT22;259;53.304;9.816;2024-01-15T04:03:08;8.80;81.80
546;DHT22;259;53.304;9.816;2024-01-15T04:05:34;8.70;80.90
546;DHT22;259;53.304;9.816;2024-01-15T04:07:59;8.70;81.00
546;DHT22;259;53.304;9.816;2024-01-15T04:10:25;8.70;81.00
546;DHT22;259;53.304;9.816;2024-01-15T04:12:51;8.70;81.00
546;DHT22;259;53.304;9.816;2024-01-15T04:15:17;8.70;81.10
546;DHT22;259;53.304;9.816;2024-01-15T04:17:43;8.70;81.00
546;DHT22;259;53.304;9.816;2024-01-15T04:20:09;8.70;81.00
546;DHT22;259;53.304;9.816;2024-01-15T04:22:35;8.70;81.10
546;DHT22;259;53.304;9.816;2024-01-15T04:25:01;8.70;81.00
546;DHT22;259;53.304;9.816;2024-01-15T04:27:27;8.60;81.00
546;DHT22;259;53.304;9.816;2024-01-15T04:29:53;8.60;81.00
546;DHT22;259;53.304;9.816;2024-01-15T04:32:19;8.60;81.20
546;DHT22;259;53.304;9.816;2024-01-15T04:34:45;8.60;81.10
546;DHT22;259;53.304;9.816;2024-01-15T04:37:11;8.60;81.20
546;DHT22;259;53.304;9.816;2024-01-15T04:39:36;8.60;81.10
546;DHT22;259;53.304;9.816;2024-01-15T04:42:02;8.60;81.10
546;DHT22;259;53.304;9.816;2024-01-15T04:44:29;8.60;81.20
546;DHT22;259;53.304;9.816;2024-01-15T04:46:54;8.60;81.10
546;DHT22;259;53.304;9.816;2024-01-15T04:49:20;8.60;81.10
546;DHT22;259;53.304;9.816;2024-01-15T04:51:46;8.50;81.00
546;DHT22;259;53.304;9.816;2024-01-15T04:54:12;8.50;81.00
546;DHT22;259;53.304;9.816;2024-01-15T04:56:38;8.50;81.10
546;DHT22;259;53.304;9.816;2024-01-15T04:59:03;8.50;81.20
546;DHT22;259;53.304;9.816;2024-01-15T05:01:32;8.50;81.00
546;DHT22;259;53.304;9.816;2024-01-15T05:03:58;8.50;81.10
546;DHT22;259;53.304;9.816;2024-01-15T05:06:24;8.50;81.10
546;DHT22;259;53.304;9.816;2024-01-15T05:08:50;8.50;81.20
546;DHT22;259;53.304;9.816;2024-01-15T05:11:15;8.50;81.10
546;DHT22;259;53.304;9.816;2024-01-15T05:13:41;8.50;81.30
546;DHT22;259;53.304;9.816;2024-01-15T05:16:07;8.50;81.20
546;DHT22;259;53.304;9.816;2024-01-15T05:18:33;8.40;81.20
546;DHT22;259;53.304;9.816;2024-01-15T05:20:59;8.40;81.20
546;DHT22;259;53.304;9.816;2024-01-15T05:23:24;8.40;81.20
546;DHT22;259;53.304;9.816;2024-01-15T05:25:50;8.40;81.30
546;DHT22;259;53.304;9.816;2024-01-15T05:28:16;8.40;81.30
546;DHT22;259;53.304;9.816;2024-01-15T05:30:41;8.40;81.30
546;DHT22;259;53.304;9.816;2024-01-15T05:33:07;8.40;81.30
546;DHT22;259;53.304;9.816;2024-01-15T05:35:33;8.40;81.40
546;DHT22;259;53.304;9.816;2024-01-15T05:37:59;8.40;81.40
546;DHT22;259;53.304;9.816;2024-01-15T05:40:25;8.40;81.40
546;DHT22;259;53.304;9.816;2024-01-15T05:42:51;8.30;81.30
546;DHT22;259;53.304;9.816;2024-01-15T05:45:16;8.40;81.30
546;DHT22;259;53.304;9.816;2024-01-15T05:47:42;8.30;81.40
546;DHT22;259;53.304;9.816;2024-01-15T05:50:09;8.30;81.40
546;DHT22;259;53.304;9.816;2024-01-15T05:52:35;8.30;81.30
546;DHT22;259;53.304;9.816;2024-01-15T05:55:01;8.30;81.30
546;DHT22;259;53.304;9.816;2024-01-15T05:57:27;8.30;81.30
546;DHT22;259;53.304;9.816;2024-01-15T05:59:53;8.30;81.40
546;DHT22;259;53.304;9.816;2024-01-15T06:02:19;8.30;81.30
546;DHT22;259;53.304;9.816;2024-01-15T06:04:45;8.30;82.10
546;DHT22;259;53.304;9.816;2024-01-15T06:07:11;8.30;81.40
546;DHT22;259;53.304;9.816;2024-01-15T06:09:36;8.30;81.40
546;DHT22;259;53.304;9.816;2024-01-15T06:12:02;8.30;81.50
546;DHT22;259;53.304;9.816;2024-01-15T06:14:28;8.30;81.60
546;DHT22;259;53.304;9.816;2024-01-15T06:16:53;8.30;81.50
546;DHT22;259;53.304;9.816;2024-01-15T06:19:19;8.30;82.10
546;DHT22;259;53.304;9.816;2024-01-15T06:21:45;8.50;83.80
546;DHT22;259;53.304;9.816;2024-01-15T06:24:10;8.70;84.90
546;DHT22;259;53.304;9.816;2024-01-15T06:26:36;9.00;85.60
546;DHT22;259;53.304;9.816;2024-01-15T06:29:02;9.40;86.00
546;DHT22;259;53.304;9.816;2024-01-15T06:31:28;9.90;85.30
546;DHT22;259;53.304;9.816;2024-01-15T06:33:55;10.40;82.00
546;DHT22;259;53.304;9.816;2024-01-15T06:36:21;10.90;80.40
546;DHT22;259;53.304;9.816;2024-01-15T06:38:47;11.20;78.70
546;DHT22;259;53.304;9.816;2024-01-15T06:41:13;11.60;77.40
546;DHT22;259;53.304;9.816;2024-01-15T06:43:38;11.90;76.90
546;DHT22;259;53.304;9.816;2024-01-15T06:46:04;12.20;75.20
546;DHT22;259;53.304;9.816;2024-01-15T06:48:30;12.40;74.10
546;DHT22;259;53.304;9.816;2024-01-15T06:50:55;12.60;73.40
546;DHT22;259;53.304;9.816;2024-01-15T06:53:21;12.80;72.60
546;DHT22;259;53.304;9.816;2024-01-15T06:55:47;13.00;72.00
546;DHT22;259;53.304;9.816;2024-01-15T06:58:14;13.20;71.40
546;DHT22;259;53.304;9.816;2024-01-15T07:00:40;13.40;70.90
546;DHT22;259;53.304;9.816;2024-01-15T07:03:06;13.50;70.40
546;DHT22;259;53.304;9.816;2024-01-15T07:05:32;13.70;70.10
546;DHT22;259;53.304;9.816;2024-01-15T07:07:58;13.80;69.80
546;DHT22;259;53.304;9.816;2024-01-15T07:10:24;13.90;69.40
546;DHT22;259;53.304;9.816;2024-01-15T07:12:49;14.00;69.10
546;DHT22;259;53.304;9.816;2024-01-15T07:15:15;14.20;68.60
546;DHT22;259;53.304;9.816;2024-01-15T07:17:41;14.30;68.50
546;DHT22;259;53.304;9.816;2024-01-15T07:20:09;14.40;68.00
546;DHT22;259;53.304;9.816;2024-01-15T07:22:38;14.50;67.80
546;DHT22;259;53.304;9.816;2024-01-15T07:25:04;14.70;67.50
546;DHT22;259;53.304;9.816;2024-01-15T07:27:31;14.80;67.30
546;DHT22;259;53.304;9.816;2024-01-15T07:29:57;14.90;67.00
546;DHT22;259;53.304;9.816;2024-01-15T07:32:23;15.00;66.90
546;DHT22;259;53.304;9.816;2024-01-15T07:34:49;15.10;66.80
546;DHT22;259;53.304;9.816;2024-01-15T07:37:15;15.20;66.60
546;DHT22;259;53.304;9.816;2024-01-15T07:39:41;15.30;66.40
546;DHT22;259;53.304;9.816;2024-01-15T07:42:06;15.40;66.20
546;DHT22;259;53.304;9.816;2024-01-15T07:44:33;15.50;66.10
546;DHT22;259;53.304;9.816;2024-01-15T07:46:58;15.60;65.80
546;DHT22;259;53.304;9.816;2024-01-15T07:49:24;15.70;65.80
546;DHT22;259;53.304;9.816;2024-01-15T07:51:50;15.80;65.50
546;DHT22;259;53.304;9.816;2024-01-15T07:54:16;15.90;65.40
546;DHT22;259;53.304;9.816;2024-01-15T07:56:56;15.90;65.10
546;DHT22;259;53.304;9.816;2024-01-15T07:59:23;16.00;65.10
546;DHT22;259;53.304;9.816;2024-01-15T08:01:49;16.10;65.10
546;DHT22;259;53.304;9.816;2024-01-15T08:04:15;16.20;64.90
546;DHT22;259;53.304;9.816;2024-01-15T08:06:41;16.20;64.80
546;DHT22;259;53.304;9.816;2024-01-15T08:09:06;16.30;64.60
546;DHT22;259;53.304;9.816;2024-01-15T08:11:34;16.40;64.70
546;DHT22;259;53.304;9.816;2024-01-15T08:14:03;16.50;64.30
546;DHT22;259;53.304;9.816;2024-01-15T08:16:29;16.50;64.30
546;DHT22;259;53.304;9.816;2024-01-15T08:18:55;16.60;64.30
546;DHT22;259;53.304;9.816;2024-01-15T08:21:21;16.70;64.20
546;DHT22;259;53.304;9.816;2024-01-15T08:23:47;16.80;64.10
546;DHT22;259;53.304;9.816;2024-01-15T08:26:13;16.80;63.90
546;DHT22;259;53.304;9.816;2024-01-15T08:28:40;16.90;63.90
546;DHT22;259;53.304;9.816;2024-01-15T08:31:06;16.90;63.70
546;DHT22;259;53.304;9.816;2024-01-15T08:33:32;17.00;63.80
546;DHT22;259;53.304;9.816;2024-01-15T08:35:57;17.00;63.70
546;DHT22;259;53.304;9.816;2024-01-15T08:38:23;17.10;63.70
546;DHT22;259;53.304;9.816;2024-01-15T08:40:49;17.10;63.70
546;DHT22;259;53.304;9.816;2024-01-15T08:43:15;17.20;64.20
546;DHT22;259;53.304;9.816;2024-01-15T08:45:40;17.20;64.50
546;DHT22;259;53.304;9.816;2024-01-15T08:48:06;17.30;64.60
546;DHT22;259;53.304;9.816;2024-01-15T08:50:32;17.40;64.70
546;DHT22;259;53.304;9.816;2024-01-15T08:52:58;17.50;64.80
546;DHT22;259;53.304;9.816;2024-01-15T08:55:24;17.60;64.80
546;DHT22;259;53.304;9.816;2024-01-15T08:57:50;17.90;64.80
546;DHT22;259;53.304;9.816;2024-01-15T09:00:17;18.20;64.70
546;DHT22;259;53.304;9.816;2024-01-15T09:02:43;18.70;63.90
546;DHT22;259;53.304;9.816;2024-01-15T09:05:09;19.20;63.20
546;DHT22;259;53.304;9.816;2024-01-15T09:07:35;19.90;62.50
546;DHT22;259;53.304;9.816;2024-01-15T09:10:00;20.40;61.60
546;DHT22;259;53.304;9.816;2024-01-15T09:12:27;20.80;61.00
546;DHT22;259;53.304;9.816;2024-01-15T09:14:53;21.20;60.50
546;DHT22;259;53.304;9.816;2024-01-15T09:17:19;21.80;59.60
546;DHT22;259;53.304;9.816;2024-01-15T09:19:47;22.20;59.30
546;DHT22;259;53.304;9.816;2024-01-15T09:22:13;22.50;59.00
546;DHT22;259;53.304;9.816;2024-01-15T09:24:42;22.80;58.60
546;DHT22;259;53.304;9.816;2024-01-15T09:27:08;23.10;58.10
546;DHT22;259;53.304;9.816;2024-01-15T09:29:34;23.40;57.80
546;DHT22;259;53.304;9.816;2024-01-15T09:32:02;23.70;57.40
546;DHT22;259;53.304;9.816;2024-01-15T09:34:29;24.20;57.10
546;DHT22;259;53.304;9.816;2024-01-15T09:36:55;24.50;56.70
546;DHT22;259;53.304;9.816;2024-01-15T09:39:20;24.70;56.30
546;DHT22;259;53.304;9.816;2024-01-15T09:41:49;25.00;55.90
546;DHT22;259;53.304;9.816;2024-01-15T09:44:15;25.30;55.70
546;DHT22;259;53.304;9.816;2024-01-15T09:46:42;25.50;55.20
546;DHT22;259;53.304;9.816;2024-01-15T09:49:10;25.70;55.10
546;DHT22;259;53.304;9.816;2024-01-15T09:51:36;25.70;55.00
546;DHT22;259;53.304;9.816;2024-01-15T09:54:02;25.80;54.90
546;DHT22;259;53.304;9.816;2024-01-15T09:56:30;25.80;54.70
546;DHT22;259;53.304;9.816;2024-01-15T09:58:57;25.80;54.90
546;DHT22;259;53.304;9.816;2024-01-15T10:01:23;25.70;55.00
546;DHT22;259;53.304;9.816;2024-01-15T10:03:50;25.70;55.10
546;DHT22;259;53.304;9.816;2024-01-15T10:06:17;25.70;55.30
546;DHT22;259;53.304;9.816;2024-01-15T10:08:48;25.70;55.30
546;DHT22;259;53.304;9.816;2024-01-15T10:11:15;25.70;55.30
546;DHT22;259;53.304;9.816;2024-01-15T10:13:43;25.60;55.30
546;DHT22;259;53.304;9.816;2024-01-15T10:16:09;25.50;55.40
546;DHT22;259;53.304;9.816;2024-01-15T10:18:35;25.50;55.60
546;DHT22;259;53.304;9.816;2024-01-15T10:21:02;25.30;55.70
546;DHT22;259;53.304;9.816;2024-01-15T10:23:31;25.30;55.90
546;DHT22;259;53.304;9.816;2024-01-15T10:25:57;25.20;56.00
546;DHT22;259;53.304;9.816;2024-01-15T10:28:26;25.10;56.20
546;DHT22;259;53.304;9.816;2024-01-15T10:30:56;25.00;56.40
546;DHT22;259;53.304;9.816;2024-01-15T10:33:23;24.80;56.40
546;DHT22;259;53.304;9.816;2024-01-15T10:35:56;24.80;56.60
546;DHT22;259;53.304;9.816;2024-01-15T10:38:23;24.70;56.60
546;DHT22;259;53.304;9.816;2024-01-15T10:40:53;24.60;56.70
546;DHT22;259;53.304;9.816;2024-01-15T10:43:20;24.60;56.80
546;DHT22;259;53.304;9.816;2024-01-15T10:45:47;24.50;56.90
546;DHT22;259;53.304;9.816;2024-01-15T10:48:16;24.50;57.10
546;DHT22;259;53.304;9.816;2024-01-15T10:50:43;24.50;57.00
546;DHT22;259;53.304;9.816;2024-01-15T10:53:14;24.40;57.20
546;DHT22;259;53.304;9.816;2024-01-15T10:55:42;24.40;57.30
546;DHT22;259;53.304;9.816;2024-01-15T10:58:08;24.40;57.40
546;DHT22;259;53.304;9.816;2024-01-15T11:00:38;24.30;57.20
546;DHT22;259;53.304;9.816;2024-01-15T11:03:05;24.30;57.50
546;DHT22;259;53.304;9.816;2024-01-15T11:05:39;24.20;57.50
546;DHT22;259;53.304;9.816;2024-01-15T11:08:07;24.10;57.70
546;DHT22;259;53.304;9.816;2024-01-15T11:10:43;24.00;57.90
546;DHT22;259;53.304;9.816;2024-01-15T11:16:03;23.80;58.10
546;DHT22;259;53.304;9.816;2024-01-15T11:19:20;23.70;58.30
546;DHT22;259;53.304;9.816;2024-01-15T11:21:25;23.60;58.50
546;DHT22;259;53.304;9.816;2024-01-15T11:23:56;23.50;58.90
546;DHT22;259;53.304;9.816;2024-01-15T11:26:43;23.50;59.00
546;DHT22;259;53.304;9.816;2024-01-15T11:32:07;24.20;59.00
546;DHT22;259;53.304;9.816;2024-01-15T11:34:53;24.60;58.60
546;DHT22;259;53.304;9.816;2024-01-15T11:37:28;25.10;58.00
546;DHT22;259;53.304;9.816;2024-01-15T11:40:00;25.40;57.50
546;DHT22;259;53.304;9.816;2024-01-15T11:42:28;25.80;56.90
546;DHT22;259;53.304;9.816;2024-01-15T11:44:55;26.20;56.60
546;DHT22;259;53.304;9.816;2024-01-15T11:50:35;27.00;56.10
546;DHT22;259;53.304;9.816;2024-01-15T11:53:17;27.20;55.10
546;DHT22;259;53.304;9.816;2024-01-15T11:55:51;27.30;54.70
546;DHT22;259;53.304;9.816;2024-01-15T11:58:17;27.50;54.60
546;DHT22;259;53.304;9.816;2024-01-15T12:00:44;27.60;54.30
546;DHT22;259;53.304;9.816;2024-01-15T12:03:20;27.60;54.00
546;DHT22;259;53.304;9.816;2024-01-15T12:05:49;27.60;54.00
546;DHT22;259;53.304;9.816;2024-01-15T12:08:21;27.60;54.00
546;DHT22;259;53.304;9.816;2024-01-15T12:10:47;27.60;54.00
546;DHT22;259;53.304;9.816;2024-01-15T12:13:14;27.50;54.10
546;DHT22;259;53.304;9.816;2024-01-15T12:15:41;27.30;54.20
546;DHT22;259;53.304;9.816;2024-01-15T12:18:09;27.20;54.50
546;DHT22;259;53.304;9.816;2024-01-15T12:20:36;27.10;54.60
546;DHT22;259;53.304;9.816;2024-01-15T12:23:02;26.90;54.70
546;DHT22;259;53.304;9.816;2024-01-15T12:25:32;26.80;55.10
546;DHT22;259;53.304;9.816;2024-01-15T12:27:59;26.60;55.20
546;DHT22;259;53.304;9.816;2024-01-15T12:30:29;26.50;55.60
546;DHT22;259;53.304;9.816;2024-01-15T12:32:57;26.20;55.50
546;DHT22;259;53.304;9.816;2024-01-15T12:35:25;26.10;55.60
546;DHT22;259;53.304;9.816;2024-01-15T12:37:55;25.90;55.90
546;DHT22;259;53.304;9.816;2024-01-15T12:40:22;25.70;56.10
546;DHT22;259;53.304;9.816;2024-01-15T12:42:49;25.50;56.20
546;DHT22;259;53.304;9.816;2024-01-15T12:45:14;25.30;56.40
546;DHT22;259;53.304;9.816;2024-01-15T12:47:41;25.20;56.60
546;DHT22;259;53.304;9.816;2024-01-15T12:50:11;25.00;56.70
546;DHT22;259;53.304;9.816;2024-01-15T12:52:37;24.90;56.90
546;DHT22;259;53.304;9.816;2024-01-15T12:55:08;24.70;57.00
546;DHT22;259;53.304;9.816;2024-01-15T12:57:35;24.60;57.10
546;DHT22;259;53.304;9.816;2024-01-15T13:00:02;24.40;57.20
546;DHT22;259;53.304;9.816;2024-01-15T13:02:33;24.20;57.30
546;DHT22;259;53.304;9.816;2024-01-15T13:04:59;24.10;57.50
546;DHT22;259;53.304;9.816;2024-01-15T13:07:26;23.90;57.50
546;DHT22;259;53.304;9.816;2024-01-15T13:09:52;23.80;57.60
546;DHT22;259;53.304;9.816;2024-01-15T13:12:19;23.70;57.80
546;DHT22;259;53.304;9.816;2024-01-15T13:14:46;23.50;57.80
546;DHT22;259;53.304;9.816;2024-01-15T13:17:12;23.40;58.00
546;DHT22;259;53.304;9.816;2024-01-15T13:19:40;23.30;58.60
546;DHT22;259;53.304;9.816;2024-01-15T13:22:05;23.10;58.20
546;DHT22;259;53.304;9.816;2024-01-15T13:24:35;23.00;58.30
546;DHT22;259;53.304;9.816;2024-01-15T13:27:02;22.90;58.40
546;DHT22;259;53.304;9.816;2024-01-15T13:29:30;22.80;58.50
546;DHT22;259;53.304;9.816;2024-01-15T13:31:56;22.60;58.60
546;DHT22;259;53.304;9.816;2024-01-15T13:34:22;22.50;58.70
546;DHT22;259;53.304;9.816;2024-01-15T13:36:47;22.40;58.90
546;DHT22;259;53.304;9.816;2024-01-15T13:39:15;22.30;58.90
546;DHT22;259;53.304;9.816;2024-01-15T13:41:46;22.20;59.00
546;DHT22;259;53.304;9.816;2024-01-15T13:44:12;22.10;59.20
546;DHT22;259;53.304;9.816;2024-01-15T13:46:37;22.00;59.30
546;DHT22;259;53.304;9.816;2024-01-15T13:49:03;21.80;59.30
546;DHT22;259;53.304;9.816;2024-01-15T13:51:31;21.70;59.40
546;DHT22;259;53.304;9.816;2024-01-15T13:53:57;21.60;59.50
546;DHT22;259;53.304;9.816;2024-01-15T13:56:23;21.50;59.60
546;DHT22;259;53.304;9.816;2024-01-15T13:58:48;21.40;59.70
546;DHT22;259;53.304;9.816;2024-01-15T14:01:15;21.30;59.80
546;DHT22;259;53.304;9.816;2024-01-15T14:03:42;21.30;60.00
546;DHT22;259;53.304;9.816;2024-01-15T14:06:09;21.20;60.10
546;DHT22;259;53.304;9.816;2024-01-15T14:08:35;21.10;60.10
546;DHT22;259;53.304;9.816;2024-01-15T14:11:04;21.00;60.20
546;DHT22;259;53.304;9.816;2024-01-15T14:13:31;20.90;60.30
546;DHT22;259;53.304;9.816;2024-01-15T14:15:57;20.90;60.50
546;DHT22;259;53.304;9.816;2024-01-15T14:18:23;20.80;60.60
546;DHT22;259;53.304;9.816;2024-01-15T14:20:49;20.70;60.60
546;DHT22;259;53.304;9.816;2024-01-15T14:23:14;20.60;60.70
546;DHT22;259;53.304;9.816;2024-01-15T14:25:40;20.50;60.80
546;DHT22;259;53.304;9.816;2024-01-15T14:28:06;20.40;60.90
546;DHT22;259;53.304;9.816;2024-01-15T14:30:32;20.40;61.10
546;DHT22;259;53.304;9.816;2024-01-15T14:32:58;20.30;61.20
546;DHT22;259;53.304;9.816;2024-01-15T14:35:23;20.20;61.30
546;DHT22;259;53.304;9.816;2024-01-15T14:37:49;20.20;62.20
546;DHT22;259;53.304;9.816;2024-01-15T14:40:15;20.10;61.50
546;DHT22;259;53.304;9.816;2024-01-15T14:42:41;20.00;61.60
546;DHT22;259;53.304;9.816;2024-01-15T14:45:07;20.00;61.80
546;DHT22;259;53.304;9.816;2024-01-15T14:47:37;19.90;61.80
546;DHT22;259;53.304;9.816;2024-01-15T14:50:05;19.80;61.80
546;DHT22;259;53.304;9.816;2024-01-15T14:52:32;19.80;62.00
546;DHT22;259;53.304;9.816;2024-01-15T14:54:59;19.70;62.10
546;DHT22;259;53.304;9.816;2024-01-15T14:57:25;19.60;62.10
546;DHT22;259;53.304;9.816;2024-01-15T14:59:50;19.60;62.20
546;DHT22;259;53.304;9.816;2024-01-15T15:02:16;19.50;62.30
546;DHT22;259;53.304;9.816;2024-01-15T15:04:43;19.50;62.40
546;DHT22;259;53.304;9.816;2024-01-15T15:07:09;19.40;62.50
546;DHT22;259;53.304;9.816;2024-01-15T15:09:35;19.30;62.60
546;DHT22;259;53.304;9.816;2024-01-15T15:12:03;19.30;62.70
546;DHT22;259;53.304;9.816;2024-01-15T15:14:30;19.20;62.70
546;DHT22;259;53.304;9.816;2024-01-15T15:16:57;19.10;62.70
546;DHT22;259;53.304;9.816;2024-01-15T15:19:23;19.10;62.90
546;DHT22;259;53.304;9.816;2024-01-15T15:21:49;19.10;63.00
546;DHT22;259;53.304;9.816;2024-01-15T15:24:14;19.00;63.00
546;DHT22;259;53.304;9.816;2024-01-15T15:26:40;18.90;63.10
546;DHT22;259;53.304;9.816;2024-01-15T15:29:06;18.90;63.20
546;DHT22;259;53.304;9.816;2024-01-15T15:31:31;18.90;63.60
546;DHT22;259;53.304;9.816;2024-01-15T15:33:57;18.80;63.30
546;DHT22;259;53.304;9.816;2024-01-15T15:36:23;18.80;63.40
546;DHT22;259;53.304;9.816;2024-01-15T15:38:49;18.70;63.60
546;DHT22;259;53.304;9.816;2024-01-15T15:41:14;18.70;63.50
546;DHT22;259;53.304;9.816;2024-01-15T15:43:40;18.60;63.50
546;DHT22;259;53.304;9.816;2024-01-15T15:46:06;18.60;63.60
546;DHT22;259;53.304;9.816;2024-01-15T15:48:32;18.50;63.70
546;DHT22;259;53.304;9.816;2024-01-15T15:50:57;18.40;63.70
546;DHT22;259;53.304;9.816;2024-01-15T15:53:25;18.40;63.80
546;DHT22;259;53.304;9.816;2024-01-15T15:55:51;18.40;64.60
546;DHT22;259;53.304;9.816;2024-01-15T15:58:17;18.30;63.80
546;DHT22;259;53.304;9.816;2024-01-15T16:00:43;18.30;64.00
546;DHT22;259;53.304;9.816;2024-01-15T16:03:08;18.20;64.00
546;DHT22;259;53.304;9.816;2024-01-15T16:05:34;18.20;64.00
546;DHT22;259;53.304;9.816;2024-01-15T16:08:00;18.20;64.20
546;DHT22;259;53.304;9.816;2024-01-15T16:10:26;18.10;64.10
546;DHT22;259;53.304;9.816;2024-01-15T16:12:51;18.10;64.20
546;DHT22;259;53.304;9.816;2024-01-15T16:15:19;18.00;64.20
546;DHT22;259;53.304;9.816;2024-01-15T16:17:51;18.00;64.20
546;DHT22;259;53.304;9.816;2024-01-15T16:20:18;17.90;64.40
546;DHT22;259;53.304;9.816;2024-01-15T16:22:44;17.90;64.30
546;DHT22;259;53.304;9.816;2024-01-15T16:25:10;17.80;64.40
546;DHT22;259;53.304;9.816;2024-01-15T16:27:35;17.80;64.50
546;DHT22;259;53.304;9.816;2024-01-15T16:30:03;17.80;64.70
546;DHT22;259;53.304;9.816;2024-01-15T16:32:29;17.70;64.50
546;DHT22;259;53.304;9.816;2024-01-15T16:34:55;17.70;64.70
546;DHT22;259;53.304;9.816;2024-01-15T16:37:20;17.60;64.60
546;DHT22;259;53.304;9.816;2024-01-15T16:39:46;17.60;64.70
546;DHT22;259;53.304;9.816;2024-01-15T16:42:12;17.50;64.60
546;DHT22;259;53.304;9.816;2024-01-15T16:44:37;17.50;64.70
546;DHT22;259;53.304;9.816;2024-01-15T16:47:03;17.50;64.10